sensor_id;sensor_type;location;lat;lon;timestamp;P1;durP1;ratioP1;P2;durP2;ratioP2
8285;SDS011;4181;43.416;24.598;2023-06-24T00:00:48;12.43;;;11.23;;
8285;SDS011;4181;43.416;24.598;2023-06-24T00:06:05;12.13;;;10.93;;
8285;SDS011;4181;43.416;24.598;2023-06-24T00:08:36;12.57;;;10.97;;
8285;SDS011;4181;43.416;24.598;2023-06-24T00:11:16;12.90;;;10.70;;
8285;SDS011;4181;43.416;24.598;2023-06-24T00:14:01;12.43;;;11.10;;
8285;SDS011;4181;43.416;24.598;2023-06-24T00:16:39;12.27;;;10.23;;
8285;SDS011;4181;43.416;24.598;2023-06-24T00:19:20;12.30;;;11.23;;
8285;SDS011;4181;43.416;24.598;2023-06-24T00:21:53;13.27;;;10.90;;
8285;SDS011;4181;43.416;24.598;2023-06-24T00:24:26;11.70;;;10.60;;
8285;SDS011;4181;43.416;24.598;2023-06-24T00:27:04;14.23;;;11.03;;
8285;SDS011;4181;43.416;24.598;2023-06-24T00:29:30;13.67;;;11.50;;
8285;SDS011;4181;43.416;24.598;2023-06-24T00:31:59;13.93;;;11.03;;
8285;SDS011;4181;43.416;24.598;2023-06-24T00:34:32;12.53;;;10.87;;
8285;SDS011;4181;43.416;24.598;2023-06-24T00:42:25;11.40;;;10.30;;
8285;SDS011;4181;43.416;24.598;2023-06-24T00:44:57;12.63;;;11.33;;
8285;SDS011;4181;43.416;24.598;2023-06-24T00:47:31;12.53;;;11.40;;
8285;SDS011;4181;43.416;24.598;2023-06-24T00:50:02;12.57;;;10.53;;
8285;SDS011;4181;43.416;24.598;2023-06-24T00:52:31;12.37;;;10.87;;
8285;SDS011;4181;43.416;24.598;2023-06-24T00:55:05;11.83;;;10.73;;
8285;SDS011;4181;43.416;24.598;2023-06-24T00:57:37;12.03;;;10.73;;
8285;SDS011;4181;43.416;24.598;2023-06-24T01:00:14;11.90;;;10.70;;
8285;SDS011;4181;43.416;24.598;2023-06-24T01:02:46;12.60;;;10.40;;
8285;SDS011;4181;43.416;24.598;2023-06-24T01:05:22;11.37;;;10.40;;
8285;SDS011;4181;43.416;24.598;2023-06-24T01:07:52;13.77;;;10.13;;
8285;SDS011;4181;43.416;24.598;2023-06-24T01:10:25;13.53;;;10.87;;
8285;SDS011;4181;43.416;24.598;2023-06-24T01:12:58;14.60;;;11.03;;
8285;SDS011;4181;43.416;24.598;2023-06-24T01:15:31;12.83;;;10.97;;
8285;SDS011;4181;43.416;24.598;2023-06-24T01:18:10;12.53;;;11.30;;
8285;SDS011;4181;43.416;24.598;2023-06-24T01:20:57;12.33;;;11.20;;
8285;SDS011;4181;43.416;24.598;2023-06-24T01:35:11;15.30;;;10.57;;
8285;SDS011;4181;43.416;24.598;2023-06-24T01:37:45;12.40;;;10.70;;
8285;SDS011;4181;43.416;24.598;2023-06-24T01:40:22;14.53;;;11.30;;
8285;SDS011;4181;43.416;24.598;2023-06-24T01:43:02;12.10;;;11.00;;
8285;SDS011;4181;43.416;24.598;2023-06-24T01:45:32;13.30;;;12.10;;
8285;SDS011;4181;43.416;24.598;2023-06-24T01:48:15;13.50;;;12.40;;
8285;SDS011;4181;43.416;24.598;2023-06-24T01:50:58;13.30;;;12.10;;
8285;SDS011;4181;43.416;24.598;2023-06-24T01:53:32;14.33;;;12.47;;
8285;SDS011;4181;43.416;24.598;2023-06-24T01:56:12;15.10;;;12.00;;
8285;SDS011;4181;43.416;24.598;2023-06-24T01:58:43;13.47;;;12.10;;
8285;SDS011;4181;43.416;24.598;2023-06-24T02:01:16;13.27;;;12.07;;
8285;SDS011;4181;43.416;24.598;2023-06-24T02:03:47;15.33;;;11.27;;
8285;SDS011;4181;43.416;24.598;2023-06-24T02:06:15;13.00;;;11.70;;
8285;SDS011;4181;43.416;24.598;2023-06-24T02:08:45;12.50;;;11.30;;
8285;SDS011;4181;43.416;24.598;2023-06-24T02:11:22;16.60;;;12.63;;
8285;SDS011;4181;43.416;24.598;2023-06-24T02:14:03;14.83;;;13.10;;
8285;SDS011;4181;43.416;24.598;2023-06-24T02:16:34;21.47;;;13.33;;
8285;SDS011;4181;43.416;24.598;2023-06-24T02:19:02;18.77;;;12.87;;
8285;SDS011;4181;43.416;24.598;2023-06-24T02:21:36;13.13;;;11.83;;
8285;SDS011;4181;43.416;24.598;2023-06-24T02:24:06;16.50;;;12.87;;
8285;SDS011;4181;43.416;24.598;2023-06-24T02:26:32;15.60;;;12.57;;
8285;SDS011;4181;43.416;24.598;2023-06-24T02:29:06;14.70;;;13.00;;
8285;SDS011;4181;43.416;24.598;2023-06-24T02:31:41;17.83;;;13.17;;
8285;SDS011;4181;43.416;24.598;2023-06-24T02:34:12;13.13;;;12.03;;
8285;SDS011;4181;43.416;24.598;2023-06-24T02:39:19;14.10;;;12.70;;
8285;SDS011;4181;43.416;24.598;2023-06-24T02:41:47;16.63;;;13.87;;
8285;SDS011;4181;43.416;24.598;2023-06-24T02:44:19;14.63;;;12.83;;
8285;SDS011;4181;43.416;24.598;2023-06-24T02:46:52;14.07;;;12.67;;
8285;SDS011;4181;43.416;24.598;2023-06-24T02:49:27;15.63;;;13.00;;
8285;SDS011;4181;43.416;24.598;2023-06-24T02:51:56;14.47;;;13.07;;
8285;SDS011;4181;43.416;24.598;2023-06-24T02:54:30;16.80;;;12.60;;
8285;SDS011;4181;43.416;24.598;2023-06-24T02:56:59;13.97;;;12.80;;
8285;SDS011;4181;43.416;24.598;2023-06-24T02:59:30;14.53;;;12.77;;
8285;SDS011;4181;43.416;24.598;2023-06-24T03:02:02;13.97;;;12.67;;
8285;SDS011;4181;43.416;24.598;2023-06-24T03:04:30;14.00;;;12.53;;
8285;SDS011;4181;43.416;24.598;2023-06-24T03:07:00;17.67;;;12.90;;
8285;SDS011;4181;43.416;24.598;2023-06-24T03:09:27;15.73;;;12.70;;
8285;SDS011;4181;43.416;24.598;2023-06-24T03:11:55;13.97;;;12.20;;
8285;SDS011;4181;43.416;24.598;2023-06-24T03:14:26;13.17;;;11.87;;
8285;SDS011;4181;43.416;24.598;2023-06-24T03:16:55;14.00;;;12.60;;
8285;SDS011;4181;43.416;24.598;2023-06-24T03:19:25;21.80;;;14.83;;
8285;SDS011;4181;43.416;24.598;2023-06-24T03:22:01;14.07;;;12.57;;
8285;SDS011;4181;43.416;24.598;2023-06-24T03:24:35;17.30;;;13.63;;
8285;SDS011;4181;43.416;24.598;2023-06-24T03:27:25;19.77;;;12.83;;
8285;SDS011;4181;43.416;24.598;2023-06-24T03:30:00;13.97;;;12.50;;
8285;SDS011;4181;43.416;24.598;2023-06-24T03:32:29;14.00;;;11.07;;
8285;SDS011;4181;43.416;24.598;2023-06-24T03:35:01;15.30;;;12.37;;
8285;SDS011;4181;43.416;24.598;2023-06-24T03:37:31;14.23;;;12.73;;
8285;SDS011;4181;43.416;24.598;2023-06-24T03:40:01;16.23;;;12.67;;
8285;SDS011;4181;43.416;24.598;2023-06-24T03:42:47;17.00;;;12.53;;
8285;SDS011;4181;43.416;24.598;2023-06-24T03:45:24;22.67;;;13.50;;
8285;SDS011;4181;43.416;24.598;2023-06-24T03:48:02;14.07;;;12.67;;
8285;SDS011;4181;43.416;24.598;2023-06-24T03:50:42;13.37;;;12.07;;
8285;SDS011;4181;43.416;24.598;2023-06-24T03:53:19;19.30;;;12.60;;
8285;SDS011;4181;43.416;24.598;2023-06-24T03:55:51;15.03;;;11.37;;
8285;SDS011;4181;43.416;24.598;2023-06-24T03:58:21;54.37;;;20.00;;
8285;SDS011;4181;43.416;24.598;2023-06-24T04:00:52;14.07;;;12.70;;
8285;SDS011;4181;43.416;24.598;2023-06-24T04:03:23;16.90;;;14.47;;
8285;SDS011;4181;43.416;24.598;2023-06-24T04:05:57;21.57;;;13.87;;
8285;SDS011;4181;43.416;24.598;2023-06-24T04:08:29;22.00;;;13.23;;
8285;SDS011;4181;43.416;24.598;2023-06-24T04:10:58;16.50;;;12.87;;
8285;SDS011;4181;43.416;24.598;2023-06-24T04:13:29;16.67;;;12.27;;
8285;SDS011;4181;43.416;24.598;2023-06-24T04:16:04;14.10;;;12.60;;
8285;SDS011;4181;43.416;24.598;2023-06-24T04:18:41;14.30;;;13.10;;
8285;SDS011;4181;43.416;24.598;2023-06-24T04:21:26;16.13;;;13.73;;
8285;SDS011;4181;43.416;24.598;2023-06-24T04:23:59;15.93;;;14.27;;
8285;SDS011;4181;43.416;24.598;2023-06-24T04:26:32;15.90;;;14.30;;
8285;SDS011;4181;43.416;24.598;2023-06-24T04:29:00;15.57;;;13.97;;
8285;SDS011;4181;43.416;24.598;2023-06-24T04:31:44;14.80;;;13.43;;
8285;SDS011;4181;43.416;24.598;2023-06-24T04:34:12;17.43;;;14.33;;
8285;SDS011;4181;43.416;24.598;2023-06-24T04:36:40;15.87;;;14.30;;
8285;SDS011;4181;43.416;24.598;2023-06-24T04:39:12;16.23;;;14.27;;
8285;SDS011;4181;43.416;24.598;2023-06-24T04:41:42;15.73;;;14.17;;
8285;SDS011;4181;43.416;24.598;2023-06-24T04:44:09;27.77;;;15.47;;
8285;SDS011;4181;43.416;24.598;2023-06-24T04:46:36;16.93;;;15.20;;
8285;SDS011;4181;43.416;24.598;2023-06-24T04:49:04;21.70;;;14.77;;
8285;SDS011;4181;43.416;24.598;2023-06-24T04:51:37;15.93;;;14.43;;
8285;SDS011;4181;43.416;24.598;2023-06-24T04:54:16;15.97;;;14.30;;
8285;SDS011;4181;43.416;24.598;2023-06-24T04:56:45;17.33;;;13.73;;
8285;SDS011;4181;43.416;24.598;2023-06-24T04:59:18;17.53;;;15.63;;
8285;SDS011;4181;43.416;24.598;2023-06-24T05:01:50;18.27;;;16.37;;
8285;SDS011;4181;43.416;24.598;2023-06-24T05:04:16;17.20;;;15.70;;
8285;SDS011;4181;43.416;24.598;2023-06-24T05:06:43;17.53;;;15.50;;
8285;SDS011;4181;43.416;24.598;2023-06-24T05:09:12;17.60;;;15.90;;
8285;SDS011;4181;43.416;24.598;2023-06-24T05:11:57;18.23;;;15.30;;
8285;SDS011;4181;43.416;24.598;2023-06-24T05:14:31;17.37;;;15.50;;
8285;SDS011;4181;43.416;24.598;2023-06-24T05:17:13;17.63;;;15.87;;
8285;SDS011;4181;43.416;24.598;2023-06-24T05:19:48;17.37;;;15.33;;
8285;SDS011;4181;43.416;24.598;2023-06-24T05:22:23;16.60;;;15.03;;
8285;SDS011;4181;43.416;24.598;2023-06-24T05:25:12;16.03;;;14.43;;
8285;SDS011;4181;43.416;24.598;2023-06-24T05:27:45;13.97;;;12.77;;
8285;SDS011;4181;43.416;24.598;2023-06-24T05:30:22;11.60;;;10.43;;
8285;SDS011;4181;43.416;24.598;2023-06-24T05:32:55;11.87;;;10.80;;
8285;SDS011;4181;43.416;24.598;2023-06-24T05:35:26;13.13;;;10.40;;
8285;SDS011;4181;43.416;24.598;2023-06-24T05:37:54;11.80;;;10.70;;
8285;SDS011;4181;43.416;24.598;2023-06-24T05:40:40;12.93;;;11.77;;
8285;SDS011;4181;43.416;24.598;2023-06-24T05:43:20;12.60;;;11.17;;
8285;SDS011;4181;43.416;24.598;2023-06-24T05:45:48;13.73;;;10.83;;
8285;SDS011;4181;43.416;24.598;2023-06-24T05:48:18;17.83;;;11.27;;
8285;SDS011;4181;43.416;24.598;2023-06-24T05:53:30;12.10;;;10.87;;
8285;SDS011;4181;43.416;24.598;2023-06-24T05:55:58;13.53;;;10.40;;
8285;SDS011;4181;43.416;24.598;2023-06-24T05:58:40;14.70;;;10.80;;
8285;SDS011;4181;43.416;24.598;2023-06-24T06:01:09;12.23;;;11.07;;
8285;SDS011;4181;43.416;24.598;2023-06-24T06:03:43;17.57;;;11.63;;
8285;SDS011;4181;43.416;24.598;2023-06-24T06:06:16;13.07;;;10.60;;
8285;SDS011;4181;43.416;24.598;2023-06-24T06:08:47;13.20;;;10.93;;
8285;SDS011;4181;43.416;24.598;2023-06-24T06:11:14;12.37;;;11.27;;
8285;SDS011;4181;43.416;24.598;2023-06-24T06:13:46;14.90;;;10.57;;
8285;SDS011;4181;43.416;24.598;2023-06-24T06:16:24;12.33;;;11.03;;
8285;SDS011;4181;43.416;24.598;2023-06-24T06:19:01;14.13;;;10.63;;
8285;SDS011;4181;43.416;24.598;2023-06-24T06:21:29;11.80;;;10.63;;
8285;SDS011;4181;43.416;24.598;2023-06-24T06:23:58;10.93;;;9.90;;
8285;SDS011;4181;43.416;24.598;2023-06-24T06:26:28;11.70;;;10.60;;
8285;SDS011;4181;43.416;24.598;2023-06-24T06:28:57;11.93;;;10.67;;
8285;SDS011;4181;43.416;24.598;2023-06-24T06:31:25;10.93;;;9.80;;
8285;SDS011;4181;43.416;24.598;2023-06-24T06:34:01;11.00;;;9.90;;
8285;SDS011;4181;43.416;24.598;2023-06-24T06:36:35;10.57;;;9.57;;
8285;SDS011;4181;43.416;24.598;2023-06-24T06:39:08;11.23;;;9.43;;
8285;SDS011;4181;43.416;24.598;2023-06-24T06:41:42;11.10;;;9.37;;
8285;SDS011;4181;43.416;24.598;2023-06-24T06:44:10;11.17;;;10.03;;
8285;SDS011;4181;43.416;24.598;2023-06-24T06:46:47;15.30;;;11.97;;
8285;SDS011;4181;43.416;24.598;2023-06-24T06:49:27;11.63;;;10.37;;
8285;SDS011;4181;43.416;24.598;2023-06-24T06:51:59;15.03;;;10.97;;
8285;SDS011;4181;43.416;24.598;2023-06-24T06:54:26;15.00;;;10.67;;
8285;SDS011;4181;43.416;24.598;2023-06-24T06:57:01;12.10;;;10.87;;
8285;SDS011;4181;43.416;24.598;2023-06-24T06:59:29;12.50;;;10.17;;
8285;SDS011;4181;43.416;24.598;2023-06-24T07:01:56;10.60;;;9.60;;
8285;SDS011;4181;43.416;24.598;2023-06-24T07:04:25;11.80;;;9.90;;
8285;SDS011;4181;43.416;24.598;2023-06-24T07:07:07;12.00;;;9.07;;
8285;SDS011;4181;43.416;24.598;2023-06-24T07:09:39;11.50;;;10.13;;
8285;SDS011;4181;43.416;24.598;2023-06-24T07:12:06;16.83;;;10.07;;
8285;SDS011;4181;43.416;24.598;2023-06-24T07:14:33;11.83;;;10.63;;
8285;SDS011;4181;43.416;24.598;2023-06-24T07:17:05;11.43;;;10.23;;
8285;SDS011;4181;43.416;24.598;2023-06-24T07:19:38;10.90;;;9.90;;
8285;SDS011;4181;43.416;24.598;2023-06-24T07:22:11;15.87;;;10.13;;
8285;SDS011;4181;43.416;24.598;2023-06-24T07:24:36;13.33;;;9.17;;
8285;SDS011;4181;43.416;24.598;2023-06-24T07:27:14;11.90;;;9.00;;
8285;SDS011;4181;43.416;24.598;2023-06-24T07:29:42;10.63;;;9.40;;
8285;SDS011;4181;43.416;24.598;2023-06-24T07:32:20;14.87;;;9.80;;
8285;SDS011;4181;43.416;24.598;2023-06-24T07:34:49;11.93;;;10.70;;
8285;SDS011;4181;43.416;24.598;2023-06-24T07:37:24;11.23;;;9.97;;
8285;SDS011;4181;43.416;24.598;2023-06-24T07:39:57;10.90;;;9.90;;
8285;SDS011;4181;43.416;24.598;2023-06-24T07:42:31;11.30;;;10.13;;
8285;SDS011;4181;43.416;24.598;2023-06-24T07:45:05;9.73;;;8.80;;
8285;SDS011;4181;43.416;24.598;2023-06-24T07:47:53;10.50;;;9.30;;
8285;SDS011;4181;43.416;24.598;2023-06-24T07:50:35;12.10;;;10.50;;
8285;SDS011;4181;43.416;24.598;2023-06-24T07:53:02;12.30;;;9.77;;
8285;SDS011;4181;43.416;24.598;2023-06-24T07:55:31;10.77;;;9.57;;
8285;SDS011;4181;43.416;24.598;2023-06-24T07:58:04;10.17;;;9.13;;
8285;SDS011;4181;43.416;24.598;2023-06-24T08:00:41;9.80;;;8.73;;
8285;SDS011;4181;43.416;24.598;2023-06-24T08:03:18;10.23;;;8.27;;
8285;SDS011;4181;43.416;24.598;2023-06-24T08:05:54;10.03;;;8.63;;
8285;SDS011;4181;43.416;24.598;2023-06-24T08:08:23;9.83;;;8.03;;
8285;SDS011;4181;43.416;24.598;2023-06-24T08:10:49;10.80;;;8.87;;
8285;SDS011;4181;43.416;24.598;2023-06-24T08:13:20;10.17;;;8.70;;
8285;SDS011;4181;43.416;24.598;2023-06-24T08:15:47;9.57;;;8.47;;
8285;SDS011;4181;43.416;24.598;2023-06-24T08:18:17;8.83;;;7.93;;
8285;SDS011;4181;43.416;24.598;2023-06-24T08:20:43;10.80;;;8.70;;
8285;SDS011;4181;43.416;24.598;2023-06-24T08:23:10;9.70;;;8.80;;
8285;SDS011;4181;43.416;24.598;2023-06-24T08:25:43;9.87;;;8.60;;
8285;SDS011;4181;43.416;24.598;2023-06-24T08:28:10;12.07;;;9.40;;
8285;SDS011;4181;43.416;24.598;2023-06-24T08:30:36;9.87;;;8.80;;
8285;SDS011;4181;43.416;24.598;2023-06-24T08:33:05;10.27;;;8.80;;
8285;SDS011;4181;43.416;24.598;2023-06-24T08:35:31;11.53;;;9.10;;
8285;SDS011;4181;43.416;24.598;2023-06-24T08:37:59;9.17;;;8.37;;
8285;SDS011;4181;43.416;24.598;2023-06-24T08:40:30;9.00;;;8.20;;
8285;SDS011;4181;43.416;24.598;2023-06-24T08:43:07;9.87;;;8.33;;
8285;SDS011;4181;43.416;24.598;2023-06-24T08:45:32;9.90;;;8.67;;
8285;SDS011;4181;43.416;24.598;2023-06-24T08:47:59;8.87;;;7.97;;
8285;SDS011;4181;43.416;24.598;2023-06-24T08:50:44;9.23;;;8.33;;
8285;SDS011;4181;43.416;24.598;2023-06-24T08:53:23;8.97;;;8.07;;
8285;SDS011;4181;43.416;24.598;2023-06-24T08:55:56;9.77;;;8.43;;
8285;SDS011;4181;43.416;24.598;2023-06-24T08:58:25;11.60;;;8.10;;
8285;SDS011;4181;43.416;24.598;2023-06-24T09:00:57;12.70;;;9.73;;
8285;SDS011;4181;43.416;24.598;2023-06-24T09:03:30;10.07;;;8.60;;
8285;SDS011;4181;43.416;24.598;2023-06-24T09:06:00;9.83;;;8.80;;
8285;SDS011;4181;43.416;24.598;2023-06-24T09:08:28;9.43;;;8.53;;
8285;SDS011;4181;43.416;24.598;2023-06-24T09:11:03;10.93;;;7.57;;
8285;SDS011;4181;43.416;24.598;2023-06-24T09:13:40;9.50;;;8.60;;
8285;SDS011;4181;43.416;24.598;2023-06-24T09:16:16;13.17;;;8.50;;
8285;SDS011;4181;43.416;24.598;2023-06-24T09:18:53;8.90;;;8.10;;
8285;SDS011;4181;43.416;24.598;2023-06-24T09:21:27;8.87;;;7.97;;
8285;SDS011;4181;43.416;24.598;2023-06-24T09:23:58;9.33;;;8.53;;
8285;SDS011;4181;43.416;24.598;2023-06-24T09:26:27;9.67;;;8.67;;
8285;SDS011;4181;43.416;24.598;2023-06-24T09:28:58;10.70;;;7.00;;
8285;SDS011;4181;43.416;24.598;2023-06-24T09:31:26;8.87;;;7.97;;
8285;SDS011;4181;43.416;24.598;2023-06-24T09:33:56;10.43;;;8.57;;
8285;SDS011;4181;43.416;24.598;2023-06-24T09:36:28;9.07;;;8.23;;
8285;SDS011;4181;43.416;24.598;2023-06-24T09:39:09;20.37;;;10.13;;
8285;SDS011;4181;43.416;24.598;2023-06-24T09:41:40;9.33;;;8.43;;
8285;SDS011;4181;43.416;24.598;2023-06-24T09:44:13;9.00;;;8.20;;
8285;SDS011;4181;43.416;24.598;2023-06-24T09:46:45;9.37;;;7.93;;
8285;SDS011;4181;43.416;24.598;2023-06-24T09:49:15;8.70;;;7.80;;
8285;SDS011;4181;43.416;24.598;2023-06-24T09:51:47;9.37;;;7.87;;
8285;SDS011;4181;43.416;24.598;2023-06-24T09:54:16;14.10;;;8.50;;
8285;SDS011;4181;43.416;24.598;2023-06-24T09:57:02;9.37;;;7.80;;
8285;SDS011;4181;43.416;24.598;2023-06-24T09:59:44;8.47;;;7.70;;
8285;SDS011;4181;43.416;24.598;2023-06-24T10:02:20;10.23;;;8.50;;
8285;SDS011;4181;43.416;24.598;2023-06-24T10:04:52;10.17;;;7.73;;
8285;SDS011;4181;43.416;24.598;2023-06-24T10:07:25;14.90;;;9.17;;
8285;SDS011;4181;43.416;24.598;2023-06-24T10:09:56;9.77;;;7.80;;
8285;SDS011;4181;43.416;24.598;2023-06-24T10:12:27;7.50;;;6.50;;
8285;SDS011;4181;43.416;24.598;2023-06-24T10:15:07;11.13;;;7.60;;
8285;SDS011;4181;43.416;24.598;2023-06-24T10:21:24;8.60;;;6.40;;
8285;SDS011;4181;43.416;24.598;2023-06-24T10:23:53;6.60;;;5.87;;
8285;SDS011;4181;43.416;24.598;2023-06-24T10:26:26;7.73;;;6.43;;
8285;SDS011;4181;43.416;24.598;2023-06-24T10:37:22;6.37;;;5.80;;
8285;SDS011;4181;43.416;24.598;2023-06-24T10:45:19;8.03;;;6.73;;
8285;SDS011;4181;43.416;24.598;2023-06-24T10:47:49;7.53;;;6.37;;
8285;SDS011;4181;43.416;24.598;2023-06-24T10:50:23;7.27;;;6.57;;
8285;SDS011;4181;43.416;24.598;2023-06-24T10:52:50;6.77;;;6.20;;
8285;SDS011;4181;43.416;24.598;2023-06-24T10:55:29;6.53;;;5.87;;
8285;SDS011;4181;43.416;24.598;2023-06-24T10:58:06;6.33;;;5.83;;
8285;SDS011;4181;43.416;24.598;2023-06-24T11:00:37;10.67;;;6.13;;
8285;SDS011;4181;43.416;24.598;2023-06-24T11:03:14;7.20;;;5.83;;
8285;SDS011;4181;43.416;24.598;2023-06-24T11:05:51;9.87;;;6.00;;
8285;SDS011;4181;43.416;24.598;2023-06-24T11:08:25;6.87;;;6.17;;
8285;SDS011;4181;43.416;24.598;2023-06-24T11:10:59;14.73;;;6.53;;
8285;SDS011;4181;43.416;24.598;2023-06-24T11:13:29;5.87;;;5.37;;
8285;SDS011;4181;43.416;24.598;2023-06-24T11:16:04;6.23;;;5.63;;
8285;SDS011;4181;43.416;24.598;2023-06-24T11:18:39;6.03;;;5.40;;
8285;SDS011;4181;43.416;24.598;2023-06-24T11:21:08;6.97;;;5.10;;
8285;SDS011;4181;43.416;24.598;2023-06-24T11:23:37;6.67;;;5.97;;
8285;SDS011;4181;43.416;24.598;2023-06-24T11:26:14;8.03;;;5.23;;
8285;SDS011;4181;43.416;24.598;2023-06-24T11:28:55;7.80;;;4.97;;
8285;SDS011;4181;43.416;24.598;2023-06-24T11:31:25;6.00;;;5.40;;
8285;SDS011;4181;43.416;24.598;2023-06-24T11:36:34;6.13;;;5.53;;
8285;SDS011;4181;43.416;24.598;2023-06-24T11:39:07;5.93;;;5.40;;
8285;SDS011;4181;43.416;24.598;2023-06-24T11:41:49;6.23;;;5.23;;
8285;SDS011;4181;43.416;24.598;2023-06-24T11:44:23;7.30;;;5.43;;
8285;SDS011;4181;43.416;24.598;2023-06-24T11:49:51;5.83;;;5.30;;
8285;SDS011;4181;43.416;24.598;2023-06-24T11:52:41;6.33;;;5.83;;
8285;SDS011;4181;43.416;24.598;2023-06-24T11:55:12;29.57;;;26.47;;
8285;SDS011;4181;43.416;24.598;2023-06-24T11:57:54;6.50;;;5.80;;
8285;SDS011;4181;43.416;24.598;2023-06-24T12:00:34;13.17;;;6.40;;
8285;SDS011;4181;43.416;24.598;2023-06-24T12:03:05;8.07;;;5.27;;
8285;SDS011;4181;43.416;24.598;2023-06-24T12:05:46;5.40;;;4.90;;
8285;SDS011;4181;43.416;24.598;2023-06-24T12:08:15;6.30;;;4.63;;
8285;SDS011;4181;43.416;24.598;2023-06-24T12:10:44;6.27;;;4.60;;
8285;SDS011;4181;43.416;24.598;2023-06-24T12:13:13;9.13;;;5.10;;
8285;SDS011;4181;43.416;24.598;2023-06-24T12:15:42;5.37;;;4.80;;
8285;SDS011;4181;43.416;24.598;2023-06-24T12:18:15;6.30;;;4.40;;
8285;SDS011;4181;43.416;24.598;2023-06-24T12:20:46;11.93;;;5.03;;
8285;SDS011;4181;43.416;24.598;2023-06-24T12:23:17;7.07;;;4.80;;
8285;SDS011;4181;43.416;24.598;2023-06-24T12:25:56;10.27;;;5.57;;
8285;SDS011;4181;43.416;24.598;2023-06-24T12:28:44;6.10;;;4.80;;
8285;SDS011;4181;43.416;24.598;2023-06-24T12:31:21;7.50;;;5.03;;
8285;SDS011;4181;43.416;24.598;2023-06-24T12:33:48;5.93;;;5.07;;
8285;SDS011;4181;43.416;24.598;2023-06-24T12:36:19;9.67;;;5.30;;
8285;SDS011;4181;43.416;24.598;2023-06-24T12:38:49;8.60;;;4.87;;
8285;SDS011;4181;43.416;24.598;2023-06-24T12:41:24;5.40;;;4.97;;
8285;SDS011;4181;43.416;24.598;2023-06-24T12:43:52;5.70;;;4.50;;
8285;SDS011;4181;43.416;24.598;2023-06-24T12:46:17;14.47;;;5.07;;
8285;SDS011;4181;43.416;24.598;2023-06-24T12:48:44;7.07;;;4.50;;
8285;SDS011;4181;43.416;24.598;2023-06-24T12:51:13;5.50;;;5.00;;
8285;SDS011;4181;43.416;24.598;2023-06-24T12:53:53;6.27;;;4.50;;
8285;SDS011;4181;43.416;24.598;2023-06-24T12:56:31;5.23;;;4.67;;
8285;SDS011;4181;43.416;24.598;2023-06-24T12:59:20;5.73;;;5.10;;
8285;SDS011;4181;43.416;24.598;2023-06-24T13:01:49;5.43;;;4.93;;
8285;SDS011;4181;43.416;24.598;2023-06-24T13:04:26;6.80;;;4.87;;
8285;SDS011;4181;43.416;24.598;2023-06-24T13:06:58;5.33;;;4.83;;
8285;SDS011;4181;43.416;24.598;2023-06-24T13:09:28;7.47;;;4.40;;
8285;SDS011;4181;43.416;24.598;2023-06-24T13:14:51;5.30;;;4.80;;
8285;SDS011;4181;43.416;24.598;2023-06-24T13:20:09;6.53;;;5.40;;
8285;SDS011;4181;43.416;24.598;2023-06-24T13:22:51;12.27;;;6.73;;
8285;SDS011;4181;43.416;24.598;2023-06-24T13:25:24;6.10;;;5.37;;
8285;SDS011;4181;43.416;24.598;2023-06-24T13:27:54;10.20;;;6.03;;
8285;SDS011;4181;43.416;24.598;2023-06-24T13:30:37;8.83;;;5.07;;
8285;SDS011;4181;43.416;24.598;2023-06-24T13:33:03;5.47;;;5.00;;
8285;SDS011;4181;43.416;24.598;2023-06-24T13:35:35;7.43;;;5.33;;
8285;SDS011;4181;43.416;24.598;2023-06-24T13:38:15;8.50;;;5.90;;
8285;SDS011;4181;43.416;24.598;2023-06-24T13:41:00;6.00;;;5.40;;
8285;SDS011;4181;43.416;24.598;2023-06-24T13:43:31;5.77;;;5.00;;
8285;SDS011;4181;43.416;24.598;2023-06-24T13:45:59;6.00;;;5.47;;
8285;SDS011;4181;43.416;24.598;2023-06-24T13:51:10;8.90;;;5.53;;
8285;SDS011;4181;43.416;24.598;2023-06-24T13:53:48;6.47;;;5.27;;
8285;SDS011;4181;43.416;24.598;2023-06-24T13:56:15;6.83;;;6.30;;
8285;SDS011;4181;43.416;24.598;2023-06-24T13:58:54;9.90;;;5.73;;
8285;SDS011;4181;43.416;24.598;2023-06-24T14:01:24;10.40;;;5.60;;
8285;SDS011;4181;43.416;24.598;2023-06-24T14:03:53;10.53;;;5.50;;
8285;SDS011;4181;43.416;24.598;2023-06-24T14:06:22;8.37;;;5.90;;
8285;SDS011;4181;43.416;24.598;2023-06-24T14:08:52;9.60;;;5.73;;
8285;SDS011;4181;43.416;24.598;2023-06-24T14:11:18;7.67;;;4.97;;
8285;SDS011;4181;43.416;24.598;2023-06-24T14:13:46;7.90;;;5.53;;
8285;SDS011;4181;43.416;24.598;2023-06-24T14:16:20;8.60;;;5.80;;
8285;SDS011;4181;43.416;24.598;2023-06-24T14:18:54;9.37;;;5.80;;
8285;SDS011;4181;43.416;24.598;2023-06-24T14:21:24;17.97;;;7.17;;
8285;SDS011;4181;43.416;24.598;2023-06-24T14:23:54;14.20;;;8.57;;
8285;SDS011;4181;43.416;24.598;2023-06-24T14:26:22;10.03;;;5.93;;
8285;SDS011;4181;43.416;24.598;2023-06-24T14:28:56;10.37;;;5.97;;
8285;SDS011;4181;43.416;24.598;2023-06-24T14:31:27;5.83;;;5.33;;
8285;SDS011;4181;43.416;24.598;2023-06-24T14:34:00;7.53;;;6.47;;
8285;SDS011;4181;43.416;24.598;2023-06-24T14:36:29;11.53;;;6.70;;
8285;SDS011;4181;43.416;24.598;2023-06-24T14:39:13;6.80;;;5.67;;
8285;SDS011;4181;43.416;24.598;2023-06-24T14:41:53;7.63;;;5.60;;
8285;SDS011;4181;43.416;24.598;2023-06-24T14:44:25;6.30;;;5.40;;
8285;SDS011;4181;43.416;24.598;2023-06-24T14:47:08;9.87;;;5.60;;
8285;SDS011;4181;43.416;24.598;2023-06-24T14:49:39;13.20;;;5.97;;
8285;SDS011;4181;43.416;24.598;2023-06-24T14:52:13;10.60;;;6.30;;
8285;SDS011;4181;43.416;24.598;2023-06-24T14:54:53;10.87;;;6.40;;
8285;SDS011;4181;43.416;24.598;2023-06-24T14:57:20;8.57;;;6.40;;
8285;SDS011;4181;43.416;24.598;2023-06-24T14:59:53;11.70;;;6.27;;
8285;SDS011;4181;43.416;24.598;2023-06-24T15:02:29;11.53;;;6.40;;
8285;SDS011;4181;43.416;24.598;2023-06-24T15:05:01;14.60;;;11.27;;
8285;SDS011;4181;43.416;24.598;2023-06-24T15:07:28;8.70;;;5.90;;
8285;SDS011;4181;43.416;24.598;2023-06-24T15:09:56;6.13;;;5.63;;
8285;SDS011;4181;43.416;24.598;2023-06-24T15:12:22;6.23;;;5.63;;
8285;SDS011;4181;43.416;24.598;2023-06-24T15:14:52;10.80;;;5.77;;
8285;SDS011;4181;43.416;24.598;2023-06-24T15:17:30;7.93;;;5.97;;
8285;SDS011;4181;43.416;24.598;2023-06-24T15:19:56;12.63;;;5.50;;
8285;SDS011;4181;43.416;24.598;2023-06-24T15:22:23;6.67;;;5.80;;
8285;SDS011;4181;43.416;24.598;2023-06-24T15:24:50;7.23;;;5.53;;
8285;SDS011;4181;43.416;24.598;2023-06-24T15:27:19;6.20;;;5.60;;
8285;SDS011;4181;43.416;24.598;2023-06-24T15:29:50;11.33;;;5.40;;
8285;SDS011;4181;43.416;24.598;2023-06-24T15:32:24;10.63;;;5.83;;
8285;SDS011;4181;43.416;24.598;2023-06-24T15:34:54;6.70;;;5.50;;
8285;SDS011;4181;43.416;24.598;2023-06-24T15:37:23;20.33;;;6.93;;
8285;SDS011;4181;43.416;24.598;2023-06-24T15:39:56;9.73;;;6.13;;
8285;SDS011;4181;43.416;24.598;2023-06-24T15:42:33;8.80;;;6.13;;
8285;SDS011;4181;43.416;24.598;2023-06-24T15:45:05;13.30;;;6.47;;
8285;SDS011;4181;43.416;24.598;2023-06-24T15:47:35;10.53;;;5.47;;
8285;SDS011;4181;43.416;24.598;2023-06-24T15:50:11;11.03;;;5.20;;
8285;SDS011;4181;43.416;24.598;2023-06-24T15:52:42;6.57;;;4.90;;
8285;SDS011;4181;43.416;24.598;2023-06-24T15:55:10;6.00;;;5.40;;
8285;SDS011;4181;43.416;24.598;2023-06-24T15:57:47;7.83;;;5.40;;
8285;SDS011;4181;43.416;24.598;2023-06-24T16:00:18;9.30;;;5.43;;
8285;SDS011;4181;43.416;24.598;2023-06-24T16:02:44;6.33;;;5.60;;
8285;SDS011;4181;43.416;24.598;2023-06-24T16:05:10;8.90;;;5.30;;
8285;SDS011;4181;43.416;24.598;2023-06-24T16:07:42;7.70;;;5.90;;
8285;SDS011;4181;43.416;24.598;2023-06-24T16:10:13;10.70;;;6.30;;
8285;SDS011;4181;43.416;24.598;2023-06-24T16:12:49;8.03;;;7.23;;
8285;SDS011;4181;43.416;24.598;2023-06-24T16:15:22;9.43;;;6.70;;